createdAt,value
2019-03-16T00:00:10.926Z,13.69
2019-03-16T00:02:42.709Z,13.68
2019-03-16T00:05:14.493Z,13.68
2019-03-16T00:07:46.206Z,13.66
2019-03-16T00:10:17.801Z,13.65
2019-03-16T00:12:49.571Z,13.65
2019-03-16T00:15:21.187Z,13.65
2019-03-16T00:17:53.184Z,13.65
2019-03-16T00:20:24.782Z,13.65
2019-03-16T00:22:56.695Z,13.65
2019-03-16T00:25:28.314Z,13.64
2019-03-16T00:27:59.941Z,13.64
2019-03-16T00:30:31.647Z,13.63
2019-03-16T00:33:03.357Z,13.61
2019-03-16T00:35:34.994Z,13.59
2019-03-16T00:38:06.685Z,13.57
2019-03-16T00:40:38.549Z,13.54
2019-03-16T00:43:10.225Z,13.55
2019-03-16T00:45:41.840Z,13.53
2019-03-16T00:48:13.622Z,13.53
2019-03-16T00:50:45.607Z,13.53
2019-03-16T00:53:17.237Z,13.55
2019-03-16T00:55:48.887Z,13.54
2019-03-16T00:58:20.481Z,13.56
2019-03-16T01:00:52.241Z,13.56
2019-03-16T01:03:24.232Z,13.55
2019-03-16T01:05:56.052Z,13.55
2019-03-16T01:08:27.673Z,13.54
2019-03-16T01:10:59.386Z,13.53
2019-03-16T01:13:31.007Z,13.52
2019-03-16T01:16:02.791Z,13.51
2019-03-16T01:18:34.541Z,13.52
2019-03-16T01:21:06.417Z,13.50
2019-03-16T01:23:38.303Z,13.50
2019-03-16T01:26:09.919Z,13.48
2019-03-16T01:28:41.590Z,13.48
2019-03-16T01:31:13.309Z,13.47
2019-03-16T01:33:44.962Z,13.47
2019-03-16T01:36:16.590Z,13.46
2019-03-16T01:38:48.210Z,13.45
2019-03-16T01:41:19.842Z,13.46
2019-03-16T01:43:51.762Z,13.46
2019-03-16T01:46:23.582Z,13.47
2019-03-16T01:48:55.199Z,13.46
2019-03-16T01:51:26.891Z,13.46
2019-03-16T01:53:58.483Z,13.46
2019-03-16T01:56:30.208Z,13.47
2019-03-16T01:59:01.837Z,13.45
2019-03-16T02:01:33.924Z,13.44
2019-03-16T02:04:07.058Z,13.43
2019-03-16T02:06:38.909Z,13.42
2019-03-16T02:09:10.507Z,13.42
2019-03-16T02:11:42.093Z,13.42
2019-03-16T02:14:13.762Z,13.41
2019-03-16T02:16:45.511Z,13.39
2019-03-16T02:19:18.271Z,13.38
2019-03-16T02:21:50.398Z,13.37
2019-03-16T02:24:22.452Z,13.36
2019-03-16T02:26:54.281Z,13.36
2019-03-16T02:29:26.006Z,13.35
2019-03-16T02:31:57.624Z,13.34
2019-03-16T02:34:29.362Z,13.32
2019-03-16T02:37:00.979Z,13.32
2019-03-16T02:39:33.000Z,13.32
2019-03-16T02:42:04.603Z,13.31
2019-03-16T02:44:36.311Z,13.31
2019-03-16T02:47:07.961Z,13.31
2019-03-16T02:49:39.652Z,13.28
2019-03-16T02:52:11.249Z,13.27
2019-03-16T02:54:42.854Z,13.28
2019-03-16T02:57:14.512Z,13.30
2019-03-16T02:59:46.131Z,13.29
2019-03-16T03:02:17.961Z,13.29
2019-03-16T03:04:49.720Z,13.29
2019-03-16T03:07:21.385Z,13.30
2019-03-16T03:09:53.028Z,13.28
2019-03-16T03:12:24.581Z,13.28
2019-03-16T03:14:56.201Z,13.22
2019-03-16T03:17:27.799Z,13.26
2019-03-16T03:19:59.664Z,13.26
2019-03-16T03:22:31.427Z,13.26
2019-03-16T03:25:03.050Z,13.25
2019-03-16T03:27:34.823Z,13.24
2019-03-16T03:30:08.084Z,13.23
2019-03-16T03:32:39.937Z,13.23
2019-03-16T03:35:11.884Z,13.22
2019-03-16T03:37:43.578Z,13.23
2019-03-16T03:40:15.180Z,13.23
2019-03-16T03:42:46.750Z,13.22
2019-03-16T03:45:18.471Z,13.22
2019-03-16T03:47:50.101Z,13.22
2019-03-16T03:50:21.983Z,13.22
2019-03-16T03:52:53.637Z,13.22
2019-03-16T03:55:25.258Z,13.23
2019-03-16T03:57:56.951Z,13.24
2019-03-16T04:00:28.544Z,13.26
2019-03-16T04:03:00.157Z,13.26
2019-03-16T04:05:31.762Z,13.30
2019-03-16T04:08:03.504Z,13.31
2019-03-16T04:10:35.094Z,13.32
2019-03-16T04:13:08.246Z,13.34
2019-03-16T04:15:41.479Z,13.36
2019-03-16T04:18:13.094Z,13.36
2019-03-16T04:20:44.684Z,13.37
2019-03-16T04:23:16.584Z,13.39
2019-03-16T04:25:48.206Z,13.41
2019-03-16T04:28:19.862Z,13.42
2019-03-16T04:30:51.532Z,13.43
2019-03-16T04:33:23.238Z,13.44
2019-03-16T04:35:54.858Z,13.47
2019-03-16T04:38:26.651Z,13.48
2019-03-16T04:40:58.235Z,13.49
2019-03-16T04:43:29.849Z,13.51
2019-03-16T04:46:01.424Z,13.51
2019-03-16T04:48:33.057Z,13.53
2019-03-16T04:51:04.670Z,13.53
2019-03-16T04:53:36.450Z,13.55
2019-03-16T04:56:08.105Z,13.55
2019-03-16T04:58:39.806Z,13.57
2019-03-16T05:01:11.390Z,13.59
2019-03-16T05:03:43.014Z,13.61
2019-03-16T05:06:14.581Z,13.62
2019-03-16T05:08:46.420Z,13.63
2019-03-16T05:11:18.121Z,13.65
2019-03-16T05:13:49.720Z,13.68
2019-03-16T05:16:21.480Z,13.69
2019-03-16T05:18:53.133Z,13.70
2019-03-16T05:21:24.746Z,13.72
2019-03-16T05:23:56.788Z,13.73
2019-03-16T05:26:28.627Z,13.72
2019-03-16T05:29:00.229Z,13.72
2019-03-16T05:31:31.853Z,13.72
2019-03-16T05:34:03.548Z,13.70
2019-03-16T05:36:35.293Z,13.70
2019-03-16T05:39:09.473Z,13.69
2019-03-16T05:41:41.298Z,13.69
2019-03-16T05:44:12.891Z,13.66
2019-03-16T05:46:44.544Z,13.66
2019-03-16T05:49:16.225Z,13.66
2019-03-16T05:51:47.885Z,13.65
2019-03-16T05:54:19.478Z,13.64
2019-03-16T05:56:51.340Z,13.65
2019-03-16T05:59:23.032Z,13.64
2019-03-16T06:01:54.670Z,13.65
2019-03-16T06:04:26.353Z,13.66
2019-03-16T06:06:58.089Z,13.65
2019-03-16T06:09:29.709Z,13.66
2019-03-16T06:12:01.603Z,13.67
2019-03-16T06:14:33.448Z,13.69
2019-03-16T06:17:05.132Z,13.70
2019-03-16T06:19:36.721Z,13.71
2019-03-16T06:22:08.684Z,13.73
2019-03-16T06:24:40.324Z,13.75
2019-03-16T06:27:12.377Z,13.75
2019-03-16T06:29:44.034Z,13.77
2019-03-16T06:32:15.677Z,13.78
2019-03-16T06:34:47.369Z,13.81
2019-03-16T06:37:19.032Z,13.83
2019-03-16T06:39:50.651Z,13.84
2019-03-16T06:42:22.484Z,13.87
2019-03-16T06:44:54.147Z,13.87
2019-03-16T06:47:25.782Z,13.89
2019-03-16T06:49:57.515Z,13.87
2019-03-16T06:52:29.223Z,13.89
2019-03-16T06:55:01.005Z,13.88
2019-03-16T06:57:32.621Z,13.86
2019-03-16T07:00:04.681Z,13.85
2019-03-16T07:02:36.364Z,13.83
2019-03-16T07:05:09.579Z,13.80
2019-03-16T07:07:41.340Z,13.76
2019-03-16T07:10:12.989Z,13.74
2019-03-16T07:12:44.658Z,13.72
2019-03-16T07:15:16.464Z,13.71
2019-03-16T07:17:48.155Z,13.70
2019-03-16T07:20:19.775Z,13.69
2019-03-16T07:22:51.565Z,13.69
2019-03-16T07:25:23.198Z,13.73
2019-03-16T07:27:54.917Z,13.74
2019-03-16T07:30:26.914Z,13.77
2019-03-16T07:32:58.640Z,13.82
2019-03-16T07:35:30.290Z,13.85
2019-03-16T07:38:02.027Z,13.88
2019-03-16T07:40:33.834Z,13.91
2019-03-16T07:43:05.625Z,13.92
2019-03-16T07:45:37.498Z,13.95
2019-03-16T07:48:09.159Z,13.96
2019-03-16T07:50:40.823Z,13.95
2019-03-16T07:53:12.563Z,13.95
2019-03-16T07:55:44.286Z,13.96
2019-03-16T07:58:15.913Z,13.95
2019-03-16T08:00:49.589Z,13.96
2019-03-16T08:03:21.210Z,13.97
2019-03-16T08:05:52.870Z,13.97
2019-03-16T08:08:24.582Z,13.98
2019-03-16T08:10:56.205Z,13.98
2019-03-16T08:13:28.062Z,13.98
2019-03-16T08:15:59.885Z,13.98
2019-03-16T08:18:31.653Z,13.96
2019-03-16T08:21:03.402Z,13.95
2019-03-16T08:23:36.233Z,13.96
2019-03-16T08:26:07.924Z,13.98
2019-03-16T08:28:39.686Z,14.00
2019-03-16T08:31:11.989Z,14.05
2019-03-16T08:33:43.760Z,14.08
2019-03-16T08:36:15.483Z,14.07
2019-03-16T08:38:47.151Z,14.08
2019-03-16T08:41:19.259Z,14.09
2019-03-16T08:43:51.095Z,14.11
2019-03-16T08:46:23.429Z,14.13
2019-03-16T08:48:55.182Z,14.15
2019-03-16T08:51:26.922Z,14.15
2019-03-16T08:53:58.581Z,14.15
2019-03-16T08:56:30.215Z,14.15
2019-03-16T08:59:01.921Z,14.17
2019-03-16T09:01:33.669Z,14.17
2019-03-16T09:04:05.746Z,14.18
2019-03-16T09:06:37.424Z,14.18
2019-03-16T09:09:10.070Z,14.21
2019-03-16T09:11:41.674Z,14.23
2019-03-16T09:14:13.385Z,14.25
2019-03-16T09:16:45.283Z,14.28
2019-03-16T09:19:17.677Z,14.32
2019-03-16T09:21:49.473Z,14.34
2019-03-16T09:24:21.303Z,14.38
2019-03-16T09:26:52.923Z,14.43
2019-03-16T09:29:24.579Z,14.48
2019-03-16T09:31:56.274Z,14.56
2019-03-16T09:34:28.669Z,14.68
2019-03-16T09:37:00.717Z,14.79
2019-03-16T09:39:32.432Z,14.94
2019-03-16T09:42:04.176Z,15.05
2019-03-16T09:44:36.087Z,15.18
2019-03-16T09:47:07.797Z,15.25
2019-03-16T09:49:40.299Z,15.31
2019-03-16T09:52:12.060Z,15.33
2019-03-16T09:54:43.726Z,15.31
2019-03-16T09:57:15.359Z,15.27
2019-03-16T09:59:46.991Z,15.20
2019-03-16T10:02:18.647Z,15.14
2019-03-16T10:04:50.316Z,15.11
2019-03-16T10:07:22.462Z,15.10
2019-03-16T10:09:54.124Z,15.10
2019-03-16T10:12:25.863Z,15.10
2019-03-16T10:14:57.640Z,15.10
2019-03-16T10:17:29.400Z,15.04
2019-03-16T10:20:01.187Z,15.01
2019-03-16T10:22:33.648Z,14.97
2019-03-16T10:25:05.485Z,14.94
2019-03-16T10:27:37.158Z,14.97
2019-03-16T10:30:10.547Z,15.03
2019-03-16T10:32:42.261Z,15.09
2019-03-16T10:35:14.012Z,15.13
2019-03-16T10:37:46.282Z,15.20
2019-03-16T10:40:18.528Z,15.25
2019-03-16T10:42:50.199Z,15.28
2019-03-16T10:45:21.879Z,15.31
2019-03-16T10:47:53.444Z,15.29
2019-03-16T10:50:25.299Z,15.32
2019-03-16T10:52:57.811Z,15.37
2019-03-16T10:55:29.614Z,15.42
2019-03-16T10:58:01.374Z,15.47
2019-03-16T11:00:33.028Z,15.53
2019-03-16T11:03:04.753Z,15.61
2019-03-16T11:05:36.409Z,15.72
2019-03-16T11:08:08.917Z,15.80
2019-03-16T11:10:40.603Z,15.89
2019-03-16T11:13:12.336Z,15.98
2019-03-16T11:15:44.002Z,16.02
2019-03-16T11:18:15.727Z,16.03
2019-03-16T11:20:47.371Z,16.07
2019-03-16T11:23:19.903Z,16.15
2019-03-16T11:25:51.611Z,16.22
2019-03-16T11:28:23.288Z,16.22
2019-03-16T11:30:54.962Z,16.22
2019-03-16T11:33:26.638Z,16.19
2019-03-16T11:35:58.394Z,16.16
2019-03-16T11:38:30.054Z,16.16
2019-03-16T11:41:02.457Z,16.26
2019-03-16T11:43:34.099Z,16.32
2019-03-16T11:46:05.852Z,16.46
2019-03-16T11:48:37.734Z,16.54
2019-03-16T11:51:09.438Z,16.61
2019-03-16T11:53:41.224Z,16.64
2019-03-16T11:56:18.313Z,16.62
2019-03-16T11:58:46.920Z,16.61
2019-03-16T12:01:18.657Z,16.58
2019-03-16T12:03:51.944Z,16.57
2019-03-16T12:06:23.552Z,16.57
2019-03-16T12:08:55.615Z,16.62
2019-03-16T12:11:28.062Z,16.62
2019-03-16T12:13:59.894Z,16.62
2019-03-16T12:16:32.163Z,16.63
2019-03-16T12:19:03.947Z,16.67
2019-03-16T12:21:35.915Z,16.70
2019-03-16T12:24:07.669Z,16.76
2019-03-16T12:26:40.048Z,16.82
2019-03-16T12:29:11.872Z,16.88
2019-03-16T12:31:43.679Z,16.92
2019-03-16T12:34:15.599Z,16.96
2019-03-16T12:36:47.320Z,16.96
2019-03-16T12:39:19.162Z,17.00
2019-03-16T12:41:51.442Z,17.07
2019-03-16T12:44:23.135Z,17.14
2019-03-16T12:46:54.796Z,17.17
2019-03-16T12:49:26.454Z,17.18
2019-03-16T12:51:58.433Z,17.15
2019-03-16T12:54:30.105Z,17.11
2019-03-16T12:57:02.567Z,17.11
2019-03-16T12:59:45.966Z,17.17
2019-03-16T13:02:07.665Z,17.22
2019-03-16T13:04:39.424Z,17.26
2019-03-16T13:07:11.142Z,17.30
2019-03-16T13:09:42.869Z,17.28
2019-03-16T13:12:15.379Z,17.24
2019-03-16T13:14:47.091Z,17.19
2019-03-16T13:17:18.873Z,17.13
2019-03-16T13:19:50.583Z,17.12
2019-03-16T13:22:22.438Z,17.12
2019-03-16T13:24:54.057Z,17.13
2019-03-16T13:27:26.518Z,17.13
2019-03-16T13:29:59.384Z,17.08
2019-03-16T13:32:31.210Z,17.04
2019-03-16T13:35:02.999Z,16.99
2019-03-16T13:37:34.857Z,16.94
2019-03-16T13:40:07.865Z,16.90
2019-03-16T13:42:40.802Z,16.89
2019-03-16T13:45:12.975Z,16.86
2019-03-16T13:47:44.800Z,16.85
2019-03-16T13:50:16.515Z,16.87
2019-03-16T13:52:48.553Z,16.87
2019-03-16T13:55:20.250Z,16.86
2019-03-16T13:57:52.098Z,16.86
2019-03-16T14:00:24.596Z,16.86
2019-03-16T14:02:56.383Z,16.85
2019-03-16T14:05:28.031Z,16.83
2019-03-16T14:07:59.767Z,16.81
2019-03-16T14:10:31.846Z,16.73
2019-03-16T14:13:03.588Z,16.64
2019-03-16T14:15:35.685Z,16.59
2019-03-16T14:18:07.319Z,16.58
2019-03-16T14:20:39.053Z,16.58
2019-03-16T14:23:10.889Z,16.55
2019-03-16T14:25:42.921Z,16.51
2019-03-16T14:28:15.391Z,16.46
2019-03-16T14:30:47.788Z,16.42
2019-03-16T14:33:19.659Z,16.40
2019-03-16T14:35:51.318Z,16.42
2019-03-16T14:38:23.059Z,16.45
2019-03-16T14:40:54.695Z,16.45
2019-03-16T14:43:26.385Z,16.45
2019-03-16T14:45:58.735Z,16.48
2019-03-16T14:48:30.592Z,16.49
2019-03-16T14:51:02.288Z,16.52
2019-03-16T14:53:34.385Z,16.54
2019-03-16T14:56:06.016Z,16.56
2019-03-16T14:58:37.642Z,16.54
2019-03-16T15:01:10.035Z,16.52
2019-03-16T15:03:41.690Z,16.49
2019-03-16T15:06:13.412Z,16.49
2019-03-16T15:08:45.069Z,16.47
2019-03-16T15:11:16.809Z,16.43
2019-03-16T15:13:48.472Z,16.40
2019-03-16T15:16:20.660Z,16.37
2019-03-16T15:18:52.266Z,16.32
2019-03-16T15:21:23.928Z,16.29
2019-03-16T15:23:55.947Z,16.25
2019-03-16T15:26:27.627Z,16.21
2019-03-16T15:28:59.291Z,16.18
2019-03-16T15:31:31.293Z,16.16
2019-03-16T15:34:02.948Z,16.14
2019-03-16T15:36:34.685Z,16.12
2019-03-16T15:39:08.528Z,16.12
2019-03-16T15:41:40.248Z,16.09
2019-03-16T15:44:11.975Z,16.07
2019-03-16T15:46:44.376Z,16.05
2019-03-16T15:49:16.022Z,16.07
2019-03-16T15:51:48.481Z,16.10
2019-03-16T15:54:20.127Z,16.15
2019-03-16T15:56:51.920Z,16.17
2019-03-16T15:59:23.702Z,16.20
2019-03-16T16:01:56.088Z,16.21
2019-03-16T16:04:27.842Z,16.22
2019-03-16T16:06:59.483Z,16.22
2019-03-16T16:09:31.500Z,16.23
2019-03-16T16:12:04.453Z,16.22
2019-03-16T16:14:36.347Z,16.21
2019-03-16T16:17:08.723Z,16.17
2019-03-16T16:19:40.403Z,16.13
2019-03-16T16:22:12.127Z,16.09
2019-03-16T16:24:44.029Z,16.07
2019-03-16T16:27:15.712Z,16.06
2019-03-16T16:29:47.433Z,16.07
2019-03-16T16:32:19.207Z,16.07
2019-03-16T16:34:51.314Z,16.08
2019-03-16T16:37:22.985Z,16.09
2019-03-16T16:39:54.726Z,16.10
2019-03-16T16:42:26.422Z,16.10
2019-03-16T16:44:58.121Z,16.12
2019-03-16T16:47:29.757Z,16.10
2019-03-16T16:50:02.183Z,16.07
2019-03-16T16:52:33.903Z,16.06
2019-03-16T16:55:05.691Z,16.03
2019-03-16T16:57:37.372Z,16.00
2019-03-16T17:00:15.784Z,15.99
2019-03-16T17:02:47.494Z,15.98
2019-03-16T17:05:19.774Z,15.96
2019-03-16T17:07:51.505Z,15.96
2019-03-16T17:10:23.433Z,15.94
2019-03-16T17:12:55.335Z,15.93
2019-03-16T17:15:27.065Z,15.91
2019-03-16T17:17:58.761Z,15.90
2019-03-16T17:20:31.232Z,15.88
2019-03-16T17:23:03.123Z,15.86
2019-03-16T17:25:35.352Z,15.81
2019-03-16T17:28:06.989Z,15.77
2019-03-16T17:30:38.802Z,15.74
2019-03-16T17:33:10.523Z,15.71
2019-03-16T17:35:42.830Z,15.66
2019-03-16T17:38:14.472Z,15.63
2019-03-16T17:40:46.389Z,15.60
2019-03-16T17:43:18.104Z,15.57
2019-03-16T17:45:49.855Z,15.56
2019-03-16T17:48:21.699Z,15.53
2019-03-16T17:50:53.445Z,15.49
2019-03-16T17:53:25.549Z,15.46
2019-03-16T17:55:57.287Z,15.43
2019-03-16T17:58:29.077Z,15.41
2019-03-16T18:01:00.792Z,15.37
2019-03-16T18:03:32.438Z,15.34
2019-03-16T18:06:04.210Z,15.30
2019-03-16T18:08:36.568Z,15.26
2019-03-16T18:11:08.226Z,15.22
2019-03-16T18:13:40.003Z,15.18
2019-03-16T18:16:11.763Z,15.13
2019-03-16T18:18:43.536Z,15.07
2019-03-16T18:21:15.345Z,15.00
2019-03-16T18:23:47.898Z,14.93
2019-03-16T18:26:19.697Z,14.88
2019-03-16T18:28:51.419Z,14.81
2019-03-16T18:31:23.059Z,14.76
2019-03-16T18:33:54.775Z,14.72
2019-03-16T18:36:26.803Z,14.69
2019-03-16T18:38:59.277Z,14.65
2019-03-16T18:41:30.967Z,14.61
2019-03-16T18:44:02.745Z,14.58
2019-03-16T18:46:34.463Z,14.55
2019-03-16T18:49:06.301Z,14.54
2019-03-16T18:51:38.031Z,14.52
2019-03-16T18:54:10.430Z,14.52
2019-03-16T18:56:42.165Z,14.51
2019-03-16T18:59:14.108Z,14.51
2019-03-16T19:01:45.968Z,14.49
2019-03-16T19:04:17.644Z,14.47
2019-03-16T19:06:49.895Z,14.44
2019-03-16T19:09:22.303Z,14.40
2019-03-16T19:11:54.046Z,14.35
2019-03-16T19:14:25.823Z,14.31
2019-03-16T19:16:57.472Z,14.26
2019-03-16T19:19:29.269Z,14.22
2019-03-16T19:22:01.197Z,14.17
2019-03-16T19:24:33.981Z,14.13
2019-03-16T19:27:05.804Z,14.10
2019-03-16T19:29:37.655Z,14.07
2019-03-16T19:32:09.441Z,14.06
2019-03-16T19:34:41.347Z,14.04
2019-03-16T19:37:13.154Z,14.02
2019-03-16T19:39:45.223Z,13.99
2019-03-16T19:42:17.648Z,13.98
2019-03-16T19:44:49.358Z,13.96
2019-03-16T19:47:21.209Z,13.93
2019-03-16T19:49:53.043Z,13.89
2019-03-16T19:52:24.980Z,13.84
2019-03-16T19:54:57.692Z,13.79
2019-03-16T19:57:30.717Z,13.75
2019-03-16T20:00:02.403Z,13.69
2019-03-16T20:02:46.188Z,13.64
2019-03-16T20:05:08.111Z,13.60
2019-03-16T20:07:39.790Z,13.58
2019-03-16T20:10:13.269Z,13.53
2019-03-16T20:12:45.658Z,13.47
2019-03-16T20:15:17.636Z,13.43
2019-03-16T20:17:49.696Z,13.40
2019-03-16T20:20:21.397Z,13.37
2019-03-16T20:22:53.096Z,13.34
2019-03-16T20:25:24.925Z,13.31
2019-03-16T20:27:57.273Z,13.21
2019-03-16T20:30:29.024Z,13.05
2019-03-16T20:33:04.692Z,12.92
2019-03-16T20:35:34.156Z,12.81
2019-03-16T20:38:05.856Z,12.76
2019-03-16T20:40:37.551Z,12.71
2019-03-16T20:43:09.889Z,12.62
2019-03-16T20:45:41.579Z,12.58
2019-03-16T20:48:13.485Z,12.51
2019-03-16T20:50:45.299Z,12.50
2019-03-16T20:53:16.985Z,12.48
2019-03-16T20:55:48.763Z,12.46
2019-03-16T20:58:20.521Z,12.43
2019-03-16T21:00:52.892Z,12.42
2019-03-16T21:03:24.711Z,12.41
2019-03-16T21:05:56.460Z,12.32
2019-03-16T21:08:28.246Z,12.26
2019-03-16T21:10:59.938Z,12.22
2019-03-16T21:13:31.975Z,12.22
2019-03-16T21:16:04.330Z,12.22
2019-03-16T21:18:36.224Z,12.23
2019-03-16T21:21:07.973Z,12.23
2019-03-16T21:23:39.756Z,12.25
2019-03-16T21:26:11.545Z,12.23
2019-03-16T21:28:43.202Z,12.21
2019-03-16T21:31:15.892Z,12.21
2019-03-16T21:33:48.304Z,12.20
2019-03-16T21:36:20.036Z,12.19
2019-03-16T21:38:51.898Z,12.14
2019-03-16T21:41:23.713Z,12.10
2019-03-16T21:43:55.437Z,12.05
2019-03-16T21:46:27.797Z,12.02
2019-03-16T21:48:59.428Z,11.97
2019-03-16T21:51:31.163Z,11.94
2019-03-16T21:54:02.852Z,11.93
2019-03-16T21:56:34.559Z,11.92
2019-03-16T21:59:06.242Z,11.90
2019-03-16T22:01:38.597Z,11.87
2019-03-16T22:04:10.487Z,11.85
2019-03-16T22:06:42.236Z,11.77
2019-03-16T22:09:13.859Z,11.80
2019-03-16T22:11:45.628Z,11.81
2019-03-16T22:14:17.381Z,11.80
2019-03-16T22:16:49.816Z,11.78
2019-03-16T22:19:21.576Z,11.76
2019-03-16T22:21:53.237Z,11.73
2019-03-16T22:24:25.552Z,11.71
2019-03-16T22:26:57.252Z,11.69
2019-03-16T22:29:29.034Z,11.67
2019-03-16T22:32:01.493Z,11.66
2019-03-16T22:34:33.313Z,11.68
2019-03-16T22:37:05.006Z,11.63
2019-03-16T22:39:36.885Z,11.52
2019-03-16T22:42:08.686Z,11.44
2019-03-16T22:44:40.547Z,11.33
2019-03-16T22:47:12.036Z,11.21
2019-03-16T22:49:44.004Z,11.12
2019-03-16T22:52:15.727Z,11.10
2019-03-16T22:54:47.272Z,11.11
2019-03-16T22:57:18.791Z,11.15
2019-03-16T22:59:50.421Z,11.16
2019-03-16T23:02:21.846Z,11.16
2019-03-16T23:04:55.586Z,11.17
2019-03-16T23:07:27.076Z,11.18
2019-03-16T23:09:59.008Z,11.18
2019-03-16T23:12:30.683Z,11.19
2019-03-16T23:15:02.389Z,11.21
2019-03-16T23:17:35.196Z,11.20
2019-03-16T23:20:07.974Z,11.17
2019-03-16T23:22:39.759Z,11.03
2019-03-16T23:25:11.906Z,10.93
2019-03-16T23:27:43.536Z,10.91
2019-03-16T23:30:15.350Z,10.89
2019-03-16T23:32:46.980Z,10.90
2019-03-16T23:35:18.989Z,10.91
2019-03-16T23:37:50.607Z,10.94
2019-03-16T23:40:22.230Z,10.95
2019-03-16T23:42:53.951Z,10.93
2019-03-16T23:45:25.717Z,10.89
2019-03-16T23:47:57.331Z,10.90
2019-03-16T23:50:29.353Z,10.91
2019-03-16T23:53:00.973Z,10.91
2019-03-16T23:55:32.700Z,10.89
2019-03-16T23:58:04.331Z,10.87
